sensor_id;sensor_type;location;lat;lon;timestamp;P1;durP1;ratioP1;P2;durP2;ratioP2
44366;SDS011;30086;57.660;12.000;2023-08-21T00:01:50;27.27;;;13.57;;
44366;SDS011;30086;57.660;12.000;2023-08-21T00:04:36;26.27;;;13.45;;
44366;SDS011;30086;57.660;12.000;2023-08-21T00:07:02;23.10;;;12.07;;
44366;SDS011;30086;57.660;12.000;2023-08-21T00:09:31;22.55;;;12.77;;
44366;SDS011;30086;57.660;12.000;2023-08-21T00:12:02;24.55;;;11.95;;
44366;SDS011;30086;57.660;12.000;2023-08-21T00:14:50;27.20;;;11.43;;
44366;SDS011;30086;57.660;12.000;2023-08-21T00:17:38;33.47;;;13.77;;
44366;SDS011;30086;57.660;12.000;2023-08-21T00:20:05;36.20;;;14.38;;
44366;SDS011;30086;57.660;12.000;2023-08-21T00:22:53;21.30;;;11.45;;
44366;SDS011;30086;57.660;12.000;2023-08-21T00:25:21;25.55;;;10.40;;
44366;SDS011;30086;57.660;12.000;2023-08-21T00:27:47;31.50;;;12.07;;
44366;SDS011;30086;57.660;12.000;2023-08-21T00:30:13;30.95;;;11.80;;
44366;SDS011;30086;57.660;12.000;2023-08-21T00:33:00;41.00;;;11.80;;
44366;SDS011;30086;57.660;12.000;2023-08-21T00:35:33;32.13;;;10.40;;
44366;SDS011;30086;57.660;12.000;2023-08-21T00:38:04;27.50;;;9.77;;
44366;SDS011;30086;57.660;12.000;2023-08-21T00:40:39;28.23;;;10.85;;
44366;SDS011;30086;57.660;12.000;2023-08-21T00:43:25;30.00;;;10.98;;
44366;SDS011;30086;57.660;12.000;2023-08-21T00:46:14;23.17;;;10.20;;
44366;SDS011;30086;57.660;12.000;2023-08-21T00:49:01;33.72;;;11.43;;
44366;SDS011;30086;57.660;12.000;2023-08-21T00:51:27;38.25;;;12.57;;
44366;SDS011;30086;57.660;12.000;2023-08-21T00:53:54;38.72;;;13.30;;
44366;SDS011;30086;57.660;12.000;2023-08-21T00:56:20;41.88;;;13.50;;
44366;SDS011;30086;57.660;12.000;2023-08-21T00:58:52;35.03;;;13.50;;
44366;SDS011;30086;57.660;12.000;2023-08-21T01:01:39;37.95;;;14.15;;
44366;SDS011;30086;57.660;12.000;2023-08-21T01:04:05;32.08;;;11.88;;
44366;SDS011;30086;57.660;12.000;2023-08-21T01:06:41;36.88;;;13.77;;
44366;SDS011;30086;57.660;12.000;2023-08-21T01:14:51;34.65;;;12.00;;
44366;SDS011;30086;57.660;12.000;2023-08-21T01:17:36;40.22;;;12.27;;
44366;SDS011;30086;57.660;12.000;2023-08-21T01:20:24;28.92;;;10.38;;
44366;SDS011;30086;57.660;12.000;2023-08-21T01:22:51;30.75;;;10.25;;
44366;SDS011;30086;57.660;12.000;2023-08-21T01:25:17;35.15;;;10.88;;
44366;SDS011;30086;57.660;12.000;2023-08-21T01:27:45;33.97;;;10.48;;
44366;SDS011;30086;57.660;12.000;2023-08-21T01:30:30;36.70;;;10.50;;
44366;SDS011;30086;57.660;12.000;2023-08-21T01:33:08;30.38;;;10.65;;
44366;SDS011;30086;57.660;12.000;2023-08-21T01:35:53;35.95;;;11.25;;
44366;SDS011;30086;57.660;12.000;2023-08-21T01:38:23;32.90;;;10.90;;
44366;SDS011;30086;57.660;12.000;2023-08-21T01:41:19;35.35;;;11.57;;
44366;SDS011;30086;57.660;12.000;2023-08-21T01:44:25;33.08;;;11.32;;
44366;SDS011;30086;57.660;12.000;2023-08-21T01:47:30;42.13;;;11.23;;
44366;SDS011;30086;57.660;12.000;2023-08-21T01:50:20;39.15;;;12.23;;
44366;SDS011;30086;57.660;12.000;2023-08-21T01:53:10;34.63;;;11.25;;
44366;SDS011;30086;57.660;12.000;2023-08-21T01:55:36;36.85;;;12.48;;
44366;SDS011;30086;57.660;12.000;2023-08-21T01:58:06;41.90;;;13.73;;
44366;SDS011;30086;57.660;12.000;2023-08-21T02:00:33;34.45;;;12.02;;
44366;SDS011;30086;57.660;12.000;2023-08-21T02:03:39;42.13;;;13.63;;
44366;SDS011;30086;57.660;12.000;2023-08-21T02:06:05;45.80;;;12.52;;
44366;SDS011;30086;57.660;12.000;2023-08-21T02:08:31;30.20;;;11.05;;
44366;SDS011;30086;57.660;12.000;2023-08-21T02:10:58;52.08;;;12.98;;
44366;SDS011;30086;57.660;12.000;2023-08-21T02:13:44;35.85;;;12.80;;
44366;SDS011;30086;57.660;12.000;2023-08-21T02:16:29;34.95;;;13.05;;
44366;SDS011;30086;57.660;12.000;2023-08-21T02:18:56;41.03;;;12.82;;
44366;SDS011;30086;57.660;12.000;2023-08-21T02:21:31;36.83;;;11.05;;
44366;SDS011;30086;57.660;12.000;2023-08-21T02:24:08;33.47;;;11.60;;
44366;SDS011;30086;57.660;12.000;2023-08-21T02:26:34;33.08;;;10.80;;
44366;SDS011;30086;57.660;12.000;2023-08-21T02:32:14;31.55;;;8.85;;
44366;SDS011;30086;57.660;12.000;2023-08-21T02:34:40;26.00;;;9.63;;
44366;SDS011;30086;57.660;12.000;2023-08-21T02:37:16;25.30;;;9.15;;
44366;SDS011;30086;57.660;12.000;2023-08-21T02:39:42;26.50;;;9.73;;
44366;SDS011;30086;57.660;12.000;2023-08-21T02:42:08;28.95;;;8.25;;
44366;SDS011;30086;57.660;12.000;2023-08-21T02:44:36;28.33;;;8.25;;
44366;SDS011;30086;57.660;12.000;2023-08-21T02:47:02;23.70;;;7.65;;
44366;SDS011;30086;57.660;12.000;2023-08-21T02:49:48;31.92;;;7.55;;
44366;SDS011;30086;57.660;12.000;2023-08-21T02:52:18;25.80;;;7.22;;
44366;SDS011;30086;57.660;12.000;2023-08-21T02:55:11;23.85;;;7.82;;
44366;SDS011;30086;57.660;12.000;2023-08-21T02:57:42;32.67;;;6.82;;
44366;SDS011;30086;57.660;12.000;2023-08-21T03:00:09;22.20;;;6.68;;
44366;SDS011;30086;57.660;12.000;2023-08-21T03:02:55;20.77;;;6.93;;
44366;SDS011;30086;57.660;12.000;2023-08-21T03:05:22;23.52;;;6.50;;
44366;SDS011;30086;57.660;12.000;2023-08-21T03:07:48;24.38;;;6.60;;
44366;SDS011;30086;57.660;12.000;2023-08-21T03:13:22;17.40;;;4.32;;
44366;SDS011;30086;57.660;12.000;2023-08-21T03:16:08;18.05;;;3.28;;
44366;SDS011;30086;57.660;12.000;2023-08-21T03:18:58;19.20;;;3.83;;
44366;SDS011;30086;57.660;12.000;2023-08-21T03:21:40;16.15;;;4.32;;
44366;SDS011;30086;57.660;12.000;2023-08-21T03:24:08;16.10;;;4.13;;
44366;SDS011;30086;57.660;12.000;2023-08-21T03:26:35;23.67;;;4.80;;
44366;SDS011;30086;57.660;12.000;2023-08-21T03:29:24;15.80;;;4.88;;
44366;SDS011;30086;57.660;12.000;2023-08-21T03:32:08;25.05;;;5.05;;
44366;SDS011;30086;57.660;12.000;2023-08-21T03:34:55;15.82;;;4.47;;
44366;SDS011;30086;57.660;12.000;2023-08-21T03:37:27;14.70;;;4.20;;
44366;SDS011;30086;57.660;12.000;2023-08-21T03:40:17;12.75;;;2.63;;
44366;SDS011;30086;57.660;12.000;2023-08-21T03:42:56;15.32;;;3.83;;
44366;SDS011;30086;57.660;12.000;2023-08-21T03:45:43;20.02;;;5.50;;
44366;SDS011;30086;57.660;12.000;2023-08-21T03:48:23;14.35;;;4.53;;
44366;SDS011;30086;57.660;12.000;2023-08-21T03:51:27;17.95;;;4.10;;
44366;SDS011;30086;57.660;12.000;2023-08-21T03:53:53;19.10;;;3.60;;
44366;SDS011;30086;57.660;12.000;2023-08-21T03:56:21;19.58;;;4.70;;
44366;SDS011;30086;57.660;12.000;2023-08-21T03:59:07;9.77;;;1.90;;
44366;SDS011;30086;57.660;12.000;2023-08-21T04:02:15;20.60;;;4.53;;
44366;SDS011;30086;57.660;12.000;2023-08-21T04:05:01;18.92;;;5.15;;
44366;SDS011;30086;57.660;12.000;2023-08-21T04:07:27;20.60;;;3.95;;
44366;SDS011;30086;57.660;12.000;2023-08-21T04:09:57;22.38;;;4.10;;
44366;SDS011;30086;57.660;12.000;2023-08-21T04:13:13;17.85;;;4.35;;
44366;SDS011;30086;57.660;12.000;2023-08-21T04:15:43;19.70;;;4.25;;
44366;SDS011;30086;57.660;12.000;2023-08-21T04:18:10;20.60;;;4.82;;
44366;SDS011;30086;57.660;12.000;2023-08-21T04:20:56;15.32;;;4.30;;
44366;SDS011;30086;57.660;12.000;2023-08-21T04:23:44;11.43;;;4.00;;
44366;SDS011;30086;57.660;12.000;2023-08-21T04:26:14;19.30;;;4.18;;
44366;SDS011;30086;57.660;12.000;2023-08-21T04:28:41;23.05;;;4.85;;
44366;SDS011;30086;57.660;12.000;2023-08-21T04:31:17;15.75;;;3.72;;
44366;SDS011;30086;57.660;12.000;2023-08-21T04:33:46;18.30;;;4.07;;
44366;SDS011;30086;57.660;12.000;2023-08-21T04:36:30;22.77;;;4.05;;
44366;SDS011;30086;57.660;12.000;2023-08-21T04:39:26;14.32;;;3.53;;
44366;SDS011;30086;57.660;12.000;2023-08-21T04:41:55;15.18;;;3.53;;
44366;SDS011;30086;57.660;12.000;2023-08-21T04:46:54;7.95;;;3.05;;
44366;SDS011;30086;57.660;12.000;2023-08-21T04:49:24;16.75;;;3.80;;
44366;SDS011;30086;57.660;12.000;2023-08-21T04:52:10;17.63;;;3.72;;
44366;SDS011;30086;57.660;12.000;2023-08-21T04:54:39;12.95;;;3.50;;
44366;SDS011;30086;57.660;12.000;2023-08-21T04:57:47;13.30;;;3.45;;
44366;SDS011;30086;57.660;12.000;2023-08-21T05:00:13;16.85;;;3.65;;
44366;SDS011;30086;57.660;12.000;2023-08-21T05:02:40;10.70;;;3.28;;
44366;SDS011;30086;57.660;12.000;2023-08-21T05:05:07;11.40;;;3.55;;
44366;SDS011;30086;57.660;12.000;2023-08-21T05:07:53;9.55;;;3.10;;
44366;SDS011;30086;57.660;12.000;2023-08-21T05:10:21;14.20;;;2.92;;
44366;SDS011;30086;57.660;12.000;2023-08-21T05:12:48;10.10;;;2.92;;
44366;SDS011;30086;57.660;12.000;2023-08-21T05:15:14;10.98;;;3.20;;
44366;SDS011;30086;57.660;12.000;2023-08-21T05:17:41;10.15;;;2.92;;
44366;SDS011;30086;57.660;12.000;2023-08-21T05:20:12;11.43;;;2.78;;
44366;SDS011;30086;57.660;12.000;2023-08-21T05:22:40;8.07;;;2.60;;
44366;SDS011;30086;57.660;12.000;2023-08-21T05:25:46;11.85;;;2.65;;
44366;SDS011;30086;57.660;12.000;2023-08-21T05:28:12;9.90;;;2.45;;
44366;SDS011;30086;57.660;12.000;2023-08-21T05:30:40;10.98;;;2.65;;
44366;SDS011;30086;57.660;12.000;2023-08-21T05:33:07;9.27;;;2.63;;
44366;SDS011;30086;57.660;12.000;2023-08-21T05:51:26;9.07;;;2.78;;
44366;SDS011;30086;57.660;12.000;2023-08-21T05:54:14;7.93;;;2.42;;
44366;SDS011;30086;57.660;12.000;2023-08-21T05:56:51;12.73;;;3.08;;
44366;SDS011;30086;57.660;12.000;2023-08-21T06:01:50;11.33;;;2.80;;
44366;SDS011;30086;57.660;12.000;2023-08-21T06:04:16;11.88;;;2.83;;
44366;SDS011;30086;57.660;12.000;2023-08-21T06:07:24;7.30;;;2.25;;
44366;SDS011;30086;57.660;12.000;2023-08-21T06:15:43;11.52;;;2.80;;
44366;SDS011;30086;57.660;12.000;2023-08-21T06:18:47;8.48;;;2.53;;
44366;SDS011;30086;57.660;12.000;2023-08-21T06:21:14;15.93;;;3.08;;
44366;SDS011;30086;57.660;12.000;2023-08-21T06:23:41;16.73;;;3.13;;
44366;SDS011;30086;57.660;12.000;2023-08-21T06:26:07;10.38;;;3.58;;
44366;SDS011;30086;57.660;12.000;2023-08-21T06:28:34;10.77;;;3.03;;
44366;SDS011;30086;57.660;12.000;2023-08-21T06:31:00;13.80;;;2.92;;
44366;SDS011;30086;57.660;12.000;2023-08-21T06:33:49;16.20;;;2.80;;
44366;SDS011;30086;57.660;12.000;2023-08-21T06:36:15;12.05;;;3.35;;
44366;SDS011;30086;57.660;12.000;2023-08-21T06:38:44;16.40;;;2.70;;
44366;SDS011;30086;57.660;12.000;2023-08-21T06:41:13;10.80;;;2.53;;
44366;SDS011;30086;57.660;12.000;2023-08-21T06:43:39;13.60;;;2.78;;
44366;SDS011;30086;57.660;12.000;2023-08-21T06:46:06;16.35;;;3.58;;
44366;SDS011;30086;57.660;12.000;2023-08-21T06:48:49;9.48;;;2.70;;
44366;SDS011;30086;57.660;12.000;2023-08-21T06:51:15;11.20;;;3.05;;
44366;SDS011;30086;57.660;12.000;2023-08-21T06:53:43;10.65;;;2.22;;
44366;SDS011;30086;57.660;12.000;2023-08-21T06:56:29;10.38;;;2.45;;
44366;SDS011;30086;57.660;12.000;2023-08-21T06:58:56;14.70;;;2.70;;
44366;SDS011;30086;57.660;12.000;2023-08-21T07:01:23;5.15;;;1.83;;
44366;SDS011;30086;57.660;12.000;2023-08-21T07:03:51;7.82;;;2.53;;
44366;SDS011;30086;57.660;12.000;2023-08-21T07:06:19;10.52;;;2.47;;
44366;SDS011;30086;57.660;12.000;2023-08-21T07:08:53;10.85;;;2.45;;
44366;SDS011;30086;57.660;12.000;2023-08-21T07:11:20;12.57;;;2.88;;
44366;SDS011;30086;57.660;12.000;2023-08-21T07:13:46;8.55;;;2.42;;
44366;SDS011;30086;57.660;12.000;2023-08-21T07:16:19;12.47;;;2.70;;
44366;SDS011;30086;57.660;12.000;2023-08-21T07:18:49;9.55;;;2.55;;
44366;SDS011;30086;57.660;12.000;2023-08-21T07:24:22;10.35;;;2.05;;
44366;SDS011;30086;57.660;12.000;2023-08-21T07:27:08;9.52;;;2.08;;
44366;SDS011;30086;57.660;12.000;2023-08-21T07:29:38;16.73;;;3.53;;
44366;SDS011;30086;57.660;12.000;2023-08-21T07:32:19;9.20;;;2.47;;
44366;SDS011;30086;57.660;12.000;2023-08-21T07:34:45;11.50;;;2.70;;
44366;SDS011;30086;57.660;12.000;2023-08-21T07:37:15;8.57;;;2.08;;
44366;SDS011;30086;57.660;12.000;2023-08-21T07:39:42;11.43;;;1.88;;
44366;SDS011;30086;57.660;12.000;2023-08-21T07:42:30;9.40;;;2.70;;
44366;SDS011;30086;57.660;12.000;2023-08-21T07:45:21;7.15;;;1.20;;
44366;SDS011;30086;57.660;12.000;2023-08-21T07:47:47;8.90;;;2.30;;
44366;SDS011;30086;57.660;12.000;2023-08-21T07:50:35;9.93;;;2.35;;
44366;SDS011;30086;57.660;12.000;2023-08-21T07:53:01;16.00;;;3.75;;
44366;SDS011;30086;57.660;12.000;2023-08-21T07:58:13;7.72;;;2.80;;
44366;SDS011;30086;57.660;12.000;2023-08-21T08:03:53;11.65;;;3.47;;
44366;SDS011;30086;57.660;12.000;2023-08-21T08:06:31;6.18;;;1.90;;
44366;SDS011;30086;57.660;12.000;2023-08-21T08:09:00;20.23;;;3.85;;
44366;SDS011;30086;57.660;12.000;2023-08-21T08:11:38;8.85;;;3.03;;
44366;SDS011;30086;57.660;12.000;2023-08-21T08:14:05;9.90;;;2.60;;
44366;SDS011;30086;57.660;12.000;2023-08-21T08:19:47;11.23;;;3.00;;
44366;SDS011;30086;57.660;12.000;2023-08-21T08:22:16;17.08;;;3.53;;
44366;SDS011;30086;57.660;12.000;2023-08-21T08:24:42;12.27;;;3.17;;
44366;SDS011;30086;57.660;12.000;2023-08-21T08:27:14;15.10;;;3.33;;
44366;SDS011;30086;57.660;12.000;2023-08-21T08:29:42;11.00;;;2.53;;
44366;SDS011;30086;57.660;12.000;2023-08-21T08:32:08;18.77;;;3.47;;
44366;SDS011;30086;57.660;12.000;2023-08-21T08:34:39;15.45;;;3.55;;
44366;SDS011;30086;57.660;12.000;2023-08-21T08:37:11;13.52;;;3.78;;
44366;SDS011;30086;57.660;12.000;2023-08-21T08:39:38;11.05;;;2.90;;
44366;SDS011;30086;57.660;12.000;2023-08-21T08:42:07;12.45;;;3.85;;
44366;SDS011;30086;57.660;12.000;2023-08-21T08:44:34;9.65;;;3.33;;
44366;SDS011;30086;57.660;12.000;2023-08-21T08:47:10;13.40;;;2.75;;
44366;SDS011;30086;57.660;12.000;2023-08-21T08:49:41;12.95;;;3.40;;
44366;SDS011;30086;57.660;12.000;2023-08-21T08:52:08;9.20;;;2.85;;
44366;SDS011;30086;57.660;12.000;2023-08-21T08:54:35;12.43;;;2.83;;
44366;SDS011;30086;57.660;12.000;2023-08-21T08:57:03;12.50;;;2.38;;
44366;SDS011;30086;57.660;12.000;2023-08-21T08:59:30;8.88;;;2.38;;
44366;SDS011;30086;57.660;12.000;2023-08-21T09:01:57;9.23;;;2.80;;
44366;SDS011;30086;57.660;12.000;2023-08-21T09:04:23;12.13;;;2.35;;
44366;SDS011;30086;57.660;12.000;2023-08-21T09:06:49;9.23;;;2.35;;
44366;SDS011;30086;57.660;12.000;2023-08-21T09:09:16;8.52;;;2.17;;
44366;SDS011;30086;57.660;12.000;2023-08-21T09:11:45;3.65;;;1.25;;
44366;SDS011;30086;57.660;12.000;2023-08-21T09:14:11;5.25;;;1.50;;
44366;SDS011;30086;57.660;12.000;2023-08-21T09:16:56;8.98;;;2.10;;
44366;SDS011;30086;57.660;12.000;2023-08-21T09:19:26;7.72;;;1.92;;
44366;SDS011;30086;57.660;12.000;2023-08-21T09:21:54;5.65;;;1.80;;
44366;SDS011;30086;57.660;12.000;2023-08-21T09:24:21;12.55;;;1.67;;
44366;SDS011;30086;57.660;12.000;2023-08-21T09:26:49;11.80;;;2.83;;
44366;SDS011;30086;57.660;12.000;2023-08-21T09:29:15;8.00;;;2.10;;
44366;SDS011;30086;57.660;12.000;2023-08-21T09:31:42;17.83;;;2.47;;
44366;SDS011;30086;57.660;12.000;2023-08-21T09:34:12;6.63;;;2.13;;
44366;SDS011;30086;57.660;12.000;2023-08-21T09:36:40;8.80;;;2.05;;
44366;SDS011;30086;57.660;12.000;2023-08-21T09:39:15;11.70;;;2.42;;
44366;SDS011;30086;57.660;12.000;2023-08-21T09:41:46;7.25;;;2.53;;
44366;SDS011;30086;57.660;12.000;2023-08-21T09:44:20;5.35;;;1.42;;
44366;SDS011;30086;57.660;12.000;2023-08-21T09:46:49;11.00;;;2.83;;
44366;SDS011;30086;57.660;12.000;2023-08-21T09:49:15;8.45;;;2.00;;
44366;SDS011;30086;57.660;12.000;2023-08-21T09:51:44;8.95;;;2.50;;
44366;SDS011;30086;57.660;12.000;2023-08-21T09:54:29;10.43;;;2.20;;
44366;SDS011;30086;57.660;12.000;2023-08-21T09:56:56;7.00;;;2.30;;
44366;SDS011;30086;57.660;12.000;2023-08-21T09:59:23;11.27;;;2.33;;
44366;SDS011;30086;57.660;12.000;2023-08-21T10:01:50;8.88;;;2.80;;
44366;SDS011;30086;57.660;12.000;2023-08-21T10:04:17;5.82;;;2.40;;
44366;SDS011;30086;57.660;12.000;2023-08-21T10:06:44;14.57;;;2.70;;
44366;SDS011;30086;57.660;12.000;2023-08-21T10:09:18;12.93;;;2.30;;
44366;SDS011;30086;57.660;12.000;2023-08-21T10:11:47;10.23;;;2.35;;
44366;SDS011;30086;57.660;12.000;2023-08-21T10:14:14;7.45;;;1.77;;
44366;SDS011;30086;57.660;12.000;2023-08-21T10:16:40;9.25;;;2.28;;
44366;SDS011;30086;57.660;12.000;2023-08-21T10:19:07;13.55;;;2.90;;
44366;SDS011;30086;57.660;12.000;2023-08-21T10:21:35;5.60;;;1.35;;
44366;SDS011;30086;57.660;12.000;2023-08-21T10:24:05;3.80;;;1.45;;
44366;SDS011;30086;57.660;12.000;2023-08-21T10:26:31;10.60;;;2.80;;
44366;SDS011;30086;57.660;12.000;2023-08-21T10:29:03;9.73;;;1.65;;
44366;SDS011;30086;57.660;12.000;2023-08-21T10:34:07;9.23;;;2.58;;
44366;SDS011;30086;57.660;12.000;2023-08-21T10:44:47;11.63;;;2.72;;
44366;SDS011;30086;57.660;12.000;2023-08-21T10:49:56;9.65;;;2.63;;
44366;SDS011;30086;57.660;12.000;2023-08-21T10:52:28;10.80;;;2.35;;
44366;SDS011;30086;57.660;12.000;2023-08-21T10:54:55;8.32;;;1.80;;
44366;SDS011;30086;57.660;12.000;2023-08-21T10:57:23;11.10;;;2.88;;
44366;SDS011;30086;57.660;12.000;2023-08-21T11:02:32;11.02;;;2.60;;
44366;SDS011;30086;57.660;12.000;2023-08-21T11:05:00;9.25;;;2.78;;
44366;SDS011;30086;57.660;12.000;2023-08-21T11:07:40;7.55;;;2.42;;
44366;SDS011;30086;57.660;12.000;2023-08-21T11:10:13;13.43;;;2.45;;
44366;SDS011;30086;57.660;12.000;2023-08-21T11:12:48;9.93;;;2.42;;
44366;SDS011;30086;57.660;12.000;2023-08-21T11:15:15;10.65;;;2.75;;
44366;SDS011;30086;57.660;12.000;2023-08-21T11:18:03;9.07;;;2.28;;
44366;SDS011;30086;57.660;12.000;2023-08-21T11:20:33;7.70;;;2.38;;
44366;SDS011;30086;57.660;12.000;2023-08-21T11:23:09;7.35;;;1.95;;
44366;SDS011;30086;57.660;12.000;2023-08-21T11:25:44;12.77;;;3.22;;
44366;SDS011;30086;57.660;12.000;2023-08-21T11:28:10;14.35;;;3.08;;
44366;SDS011;30086;57.660;12.000;2023-08-21T11:30:57;6.85;;;1.90;;
44366;SDS011;30086;57.660;12.000;2023-08-21T11:33:49;7.25;;;2.22;;
44366;SDS011;30086;57.660;12.000;2023-08-21T11:36:17;6.43;;;2.00;;
44366;SDS011;30086;57.660;12.000;2023-08-21T11:38:45;7.85;;;2.30;;
44366;SDS011;30086;57.660;12.000;2023-08-21T11:41:56;9.77;;;2.40;;
44366;SDS011;30086;57.660;12.000;2023-08-21T11:44:23;6.93;;;1.98;;
44366;SDS011;30086;57.660;12.000;2023-08-21T11:46:52;10.02;;;2.50;;
44366;SDS011;30086;57.660;12.000;2023-08-21T11:49:21;11.70;;;2.50;;
44366;SDS011;30086;57.660;12.000;2023-08-21T11:51:51;9.90;;;1.90;;
44366;SDS011;30086;57.660;12.000;2023-08-21T11:54:18;5.30;;;1.83;;
44366;SDS011;30086;57.660;12.000;2023-08-21T11:56:46;10.48;;;2.20;;
44366;SDS011;30086;57.660;12.000;2023-08-21T11:59:23;9.02;;;2.22;;
44366;SDS011;30086;57.660;12.000;2023-08-21T12:02:21;9.40;;;2.15;;
44366;SDS011;30086;57.660;12.000;2023-08-21T12:05:15;9.70;;;1.90;;
44366;SDS011;30086;57.660;12.000;2023-08-21T12:07:44;6.80;;;2.22;;
44366;SDS011;30086;57.660;12.000;2023-08-21T12:10:11;8.15;;;2.03;;
44366;SDS011;30086;57.660;12.000;2023-08-21T12:12:40;5.85;;;2.20;;
44366;SDS011;30086;57.660;12.000;2023-08-21T12:15:06;7.90;;;2.20;;
44366;SDS011;30086;57.660;12.000;2023-08-21T12:17:32;6.90;;;2.25;;
44366;SDS011;30086;57.660;12.000;2023-08-21T12:19:59;7.68;;;2.13;;
44366;SDS011;30086;57.660;12.000;2023-08-21T12:22:25;9.07;;;2.15;;
44366;SDS011;30086;57.660;12.000;2023-08-21T12:24:51;3.90;;;1.77;;
44366;SDS011;30086;57.660;12.000;2023-08-21T12:27:17;8.27;;;2.40;;
44366;SDS011;30086;57.660;12.000;2023-08-21T12:29:46;9.52;;;2.80;;
44366;SDS011;30086;57.660;12.000;2023-08-21T12:32:12;8.00;;;2.13;;
44366;SDS011;30086;57.660;12.000;2023-08-21T12:34:41;5.40;;;1.70;;
44366;SDS011;30086;57.660;12.000;2023-08-21T12:37:10;9.65;;;2.15;;
44366;SDS011;30086;57.660;12.000;2023-08-21T12:44:44;8.38;;;2.15;;
44366;SDS011;30086;57.660;12.000;2023-08-21T12:47:10;9.75;;;2.30;;
44366;SDS011;30086;57.660;12.000;2023-08-21T12:49:37;3.30;;;1.20;;
44366;SDS011;30086;57.660;12.000;2023-08-21T12:52:04;4.78;;;1.35;;
44366;SDS011;30086;57.660;12.000;2023-08-21T12:54:31;9.18;;;1.98;;
44366;SDS011;30086;57.660;12.000;2023-08-21T12:56:59;4.78;;;1.33;;
44366;SDS011;30086;57.660;12.000;2023-08-21T12:59:26;7.25;;;2.00;;
44366;SDS011;30086;57.660;12.000;2023-08-21T13:01:52;0.93;;;0.77;;
44366;SDS011;30086;57.660;12.000;2023-08-21T13:04:18;11.45;;;2.60;;
44366;SDS011;30086;57.660;12.000;2023-08-21T13:06:45;2.60;;;0.90;;
44366;SDS011;30086;57.660;12.000;2023-08-21T13:09:11;8.50;;;1.42;;
44366;SDS011;30086;57.660;12.000;2023-08-21T13:11:39;4.22;;;1.48;;
44366;SDS011;30086;57.660;12.000;2023-08-21T13:14:05;9.75;;;2.00;;
44366;SDS011;30086;57.660;12.000;2023-08-21T13:16:32;8.40;;;2.20;;
44366;SDS011;30086;57.660;12.000;2023-08-21T13:18:59;6.43;;;1.38;;
44366;SDS011;30086;57.660;12.000;2023-08-21T13:21:25;3.70;;;1.17;;
44366;SDS011;30086;57.660;12.000;2023-08-21T13:23:51;1.40;;;1.02;;
44366;SDS011;30086;57.660;12.000;2023-08-21T13:26:17;9.65;;;2.13;;
44366;SDS011;30086;57.660;12.000;2023-08-21T13:28:45;5.75;;;2.05;;
44366;SDS011;30086;57.660;12.000;2023-08-21T13:31:11;4.57;;;1.63;;
44366;SDS011;30086;57.660;12.000;2023-08-21T13:34:10;6.07;;;2.13;;
44366;SDS011;30086;57.660;12.000;2023-08-21T13:36:29;6.05;;;2.03;;
44366;SDS011;30086;57.660;12.000;2023-08-21T13:38:57;6.53;;;2.10;;
44366;SDS011;30086;57.660;12.000;2023-08-21T13:41:23;5.82;;;1.52;;
44366;SDS011;30086;57.660;12.000;2023-08-21T13:43:49;4.78;;;1.50;;
44366;SDS011;30086;57.660;12.000;2023-08-21T13:46:15;7.40;;;1.85;;
44366;SDS011;30086;57.660;12.000;2023-08-21T13:48:42;4.28;;;1.50;;
44366;SDS011;30086;57.660;12.000;2023-08-21T13:51:08;12.48;;;2.15;;
44366;SDS011;30086;57.660;12.000;2023-08-21T13:53:35;4.32;;;1.50;;
44366;SDS011;30086;57.660;12.000;2023-08-21T13:56:01;6.55;;;1.70;;
44366;SDS011;30086;57.660;12.000;2023-08-21T13:58:28;6.45;;;2.17;;
44366;SDS011;30086;57.660;12.000;2023-08-21T14:00:54;2.40;;;1.30;;
44366;SDS011;30086;57.660;12.000;2023-08-21T14:03:22;6.43;;;1.80;;
44366;SDS011;30086;57.660;12.000;2023-08-21T14:05:48;9.07;;;1.92;;
44366;SDS011;30086;57.660;12.000;2023-08-21T14:08:14;6.50;;;2.33;;
44366;SDS011;30086;57.660;12.000;2023-08-21T14:10:41;8.55;;;1.90;;
44366;SDS011;30086;57.660;12.000;2023-08-21T14:13:07;6.68;;;1.92;;
44366;SDS011;30086;57.660;12.000;2023-08-21T14:15:33;9.10;;;2.05;;
44366;SDS011;30086;57.660;12.000;2023-08-21T14:17:59;5.55;;;1.85;;
44366;SDS011;30086;57.660;12.000;2023-08-21T14:20:26;7.50;;;2.15;;
44366;SDS011;30086;57.660;12.000;2023-08-21T14:22:52;9.40;;;2.00;;
44366;SDS011;30086;57.660;12.000;2023-08-21T14:25:18;9.55;;;2.47;;
44366;SDS011;30086;57.660;12.000;2023-08-21T14:27:44;8.02;;;2.40;;
44366;SDS011;30086;57.660;12.000;2023-08-21T14:30:10;13.05;;;2.78;;
44366;SDS011;30086;57.660;12.000;2023-08-21T14:32:37;5.55;;;1.85;;
44366;SDS011;30086;57.660;12.000;2023-08-21T14:35:04;7.85;;;1.88;;
44366;SDS011;30086;57.660;12.000;2023-08-21T14:37:32;10.85;;;2.75;;
44366;SDS011;30086;57.660;12.000;2023-08-21T14:39:58;9.55;;;2.45;;
44366;SDS011;30086;57.660;12.000;2023-08-21T14:42:33;9.23;;;2.70;;
44366;SDS011;30086;57.660;12.000;2023-08-21T14:45:00;12.57;;;2.67;;
44366;SDS011;30086;57.660;12.000;2023-08-21T14:47:26;13.02;;;2.80;;
44366;SDS011;30086;57.660;12.000;2023-08-21T14:49:52;10.73;;;2.67;;
44366;SDS011;30086;57.660;12.000;2023-08-21T14:52:20;8.18;;;2.05;;
44366;SDS011;30086;57.660;12.000;2023-08-21T14:54:52;8.32;;;2.50;;
44366;SDS011;30086;57.660;12.000;2023-08-21T14:57:19;8.55;;;2.10;;
44366;SDS011;30086;57.660;12.000;2023-08-21T14:59:45;7.60;;;1.95;;
44366;SDS011;30086;57.660;12.000;2023-08-21T15:02:12;8.18;;;2.20;;
44366;SDS011;30086;57.660;12.000;2023-08-21T15:04:38;8.13;;;3.20;;
44366;SDS011;30086;57.660;12.000;2023-08-21T15:07:04;11.77;;;2.42;;
44366;SDS011;30086;57.660;12.000;2023-08-21T15:09:30;9.93;;;2.35;;
44366;SDS011;30086;57.660;12.000;2023-08-21T15:11:56;10.20;;;2.60;;
44366;SDS011;30086;57.660;12.000;2023-08-21T15:14:24;14.77;;;2.67;;
44366;SDS011;30086;57.660;12.000;2023-08-21T15:16:55;12.98;;;2.63;;
44366;SDS011;30086;57.660;12.000;2023-08-21T15:19:21;10.77;;;2.50;;
44366;SDS011;30086;57.660;12.000;2023-08-21T15:21:47;10.90;;;3.45;;
44366;SDS011;30086;57.660;12.000;2023-08-21T15:24:13;13.15;;;2.92;;
44366;SDS011;30086;57.660;12.000;2023-08-21T15:26:39;13.10;;;2.83;;
44366;SDS011;30086;57.660;12.000;2023-08-21T15:29:06;12.00;;;3.10;;
44366;SDS011;30086;57.660;12.000;2023-08-21T15:31:33;10.45;;;2.45;;
44366;SDS011;30086;57.660;12.000;2023-08-21T15:33:59;9.75;;;2.70;;
44366;SDS011;30086;57.660;12.000;2023-08-21T15:36:26;11.88;;;3.15;;
44366;SDS011;30086;57.660;12.000;2023-08-21T15:38:52;8.65;;;3.00;;
44366;SDS011;30086;57.660;12.000;2023-08-21T15:41:19;8.48;;;2.70;;
44366;SDS011;30086;57.660;12.000;2023-08-21T15:43:45;11.68;;;3.00;;
44366;SDS011;30086;57.660;12.000;2023-08-21T15:46:13;7.80;;;2.42;;
44366;SDS011;30086;57.660;12.000;2023-08-21T15:48:39;13.90;;;3.53;;
44366;SDS011;30086;57.660;12.000;2023-08-21T15:51:06;11.63;;;2.90;;
44366;SDS011;30086;57.660;12.000;2023-08-21T15:53:33;9.98;;;2.90;;
44366;SDS011;30086;57.660;12.000;2023-08-21T15:55:59;11.02;;;3.40;;
44366;SDS011;30086;57.660;12.000;2023-08-21T15:58:25;10.70;;;3.30;;
44366;SDS011;30086;57.660;12.000;2023-08-21T16:00:53;11.93;;;2.85;;
44366;SDS011;30086;57.660;12.000;2023-08-21T16:03:19;10.73;;;2.55;;
44366;SDS011;30086;57.660;12.000;2023-08-21T16:05:46;5.20;;;1.65;;
44366;SDS011;30086;57.660;12.000;2023-08-21T16:08:13;11.30;;;3.08;;